Dubre, Kentucky
Current Conditions -  °F | °C
As of 10:15 AM on Wednesday 22 Oct 2014 (Local Time) from KGLW Reporting Station
Clear Clear  
Wind Chill: 52°   Ceiling: Unl
Heat Index: 52°   Visibility: 10mi
Dew Point: 38°   Wind: 6mph
Humidity: 58%   Direction: 80°E
Pressure: 30.28"   Gusts: NA
Location:  36.84°N, 85.53°W
Report Text: KGLW 221515Z AUTO 08005KT 10SM CLR 11/03 A3028 RMK AO2 T01120032
Loading
Personal Weather Stations






























Interactive Weather Map
Tropical Storm Tracking
New forecast layout! Learn more

10-Day Weather Forecast

Advertisements
Track Severe Weather on mobile